sensor_id;sensor_type;location;lat;lon;timestamp;P1;durP1;ratioP1;P2;durP2;ratioP2
76667;SDS011;65585;51.166;16.922;2023-02-28T00:01:39;50.13;;;28.02;;
76667;SDS011;65585;51.166;16.922;2023-02-28T00:04:25;53.83;;;29.05;;
76667;SDS011;65585;51.166;16.922;2023-02-28T00:07:00;53.30;;;25.75;;
76667;SDS011;65585;51.166;16.922;2023-02-28T00:09:29;55.22;;;30.60;;
76667;SDS011;65585;51.166;16.922;2023-02-28T00:11:59;54.63;;;27.95;;
76667;SDS011;65585;51.166;16.922;2023-02-28T00:14:26;53.53;;;29.85;;
76667;SDS011;65585;51.166;16.922;2023-02-28T00:17:07;55.60;;;28.90;;
76667;SDS011;65585;51.166;16.922;2023-02-28T00:19:55;57.10;;;28.38;;
76667;SDS011;65585;51.166;16.922;2023-02-28T00:22:31;45.65;;;24.52;;
76667;SDS011;65585;51.166;16.922;2023-02-28T00:25:10;40.67;;;23.13;;
76667;SDS011;65585;51.166;16.922;2023-02-28T00:27:46;42.90;;;23.73;;
76667;SDS011;65585;51.166;16.922;2023-02-28T00:30:17;41.40;;;23.38;;
76667;SDS011;65585;51.166;16.922;2023-02-28T00:32:50;39.83;;;22.55;;
76667;SDS011;65585;51.166;16.922;2023-02-28T00:35:23;36.95;;;21.15;;
76667;SDS011;65585;51.166;16.922;2023-02-28T00:37:49;41.92;;;20.52;;
76667;SDS011;65585;51.166;16.922;2023-02-28T00:40:38;32.17;;;19.10;;
76667;SDS011;65585;51.166;16.922;2023-02-28T00:43:10;49.03;;;22.65;;
76667;SDS011;65585;51.166;16.922;2023-02-28T00:45:43;37.03;;;18.25;;
76667;SDS011;65585;51.166;16.922;2023-02-28T00:48:11;32.33;;;16.83;;
76667;SDS011;65585;51.166;16.922;2023-02-28T00:50:50;35.95;;;20.20;;
76667;SDS011;65585;51.166;16.922;2023-02-28T00:53:25;33.17;;;19.52;;
76667;SDS011;65585;51.166;16.922;2023-02-28T00:55:53;30.48;;;17.70;;
76667;SDS011;65585;51.166;16.922;2023-02-28T00:58:27;28.23;;;17.65;;
76667;SDS011;65585;51.166;16.922;2023-02-28T01:00:57;34.10;;;17.17;;
76667;SDS011;65585;51.166;16.922;2023-02-28T01:03:26;40.92;;;19.73;;
76667;SDS011;65585;51.166;16.922;2023-02-28T01:05:57;41.13;;;20.77;;
76667;SDS011;65585;51.166;16.922;2023-02-28T01:08:23;38.05;;;20.88;;
76667;SDS011;65585;51.166;16.922;2023-02-28T01:10:54;42.00;;;22.08;;
76667;SDS011;65585;51.166;16.922;2023-02-28T01:13:28;37.35;;;22.30;;
76667;SDS011;65585;51.166;16.922;2023-02-28T01:15:55;35.15;;;18.63;;
76667;SDS011;65585;51.166;16.922;2023-02-28T01:18:27;38.75;;;18.70;;
76667;SDS011;65585;51.166;16.922;2023-02-28T01:21:03;38.65;;;19.92;;
76667;SDS011;65585;51.166;16.922;2023-02-28T01:23:42;37.20;;;18.30;;
76667;SDS011;65585;51.166;16.922;2023-02-28T01:26:17;28.60;;;17.10;;
76667;SDS011;65585;51.166;16.922;2023-02-28T01:28:48;24.83;;;15.88;;
76667;SDS011;65585;51.166;16.922;2023-02-28T01:31:22;23.42;;;13.48;;
76667;SDS011;65585;51.166;16.922;2023-02-28T01:33:52;24.33;;;14.02;;
76667;SDS011;65585;51.166;16.922;2023-02-28T01:36:22;25.48;;;14.65;;
76667;SDS011;65585;51.166;16.922;2023-02-28T01:38:56;27.75;;;15.10;;
76667;SDS011;65585;51.166;16.922;2023-02-28T01:41:30;35.65;;;17.45;;
76667;SDS011;65585;51.166;16.922;2023-02-28T01:46:32;28.25;;;16.98;;
76667;SDS011;65585;51.166;16.922;2023-02-28T01:49:10;33.88;;;18.55;;
76667;SDS011;65585;51.166;16.922;2023-02-28T01:52:04;27.58;;;17.67;;
76667;SDS011;65585;51.166;16.922;2023-02-28T01:54:54;28.15;;;16.55;;
76667;SDS011;65585;51.166;16.922;2023-02-28T01:57:24;29.10;;;16.85;;
76667;SDS011;65585;51.166;16.922;2023-02-28T01:59:59;37.20;;;18.95;;
76667;SDS011;65585;51.166;16.922;2023-02-28T02:02:38;32.75;;;18.08;;
76667;SDS011;65585;51.166;16.922;2023-02-28T02:08:10;30.38;;;16.95;;
76667;SDS011;65585;51.166;16.922;2023-02-28T02:10:57;29.45;;;16.10;;
76667;SDS011;65585;51.166;16.922;2023-02-28T02:13:38;29.75;;;15.23;;
76667;SDS011;65585;51.166;16.922;2023-02-28T02:16:25;32.33;;;17.63;;
76667;SDS011;65585;51.166;16.922;2023-02-28T02:19:00;34.42;;;20.23;;
76667;SDS011;65585;51.166;16.922;2023-02-28T02:27:38;39.55;;;19.23;;
76667;SDS011;65585;51.166;16.922;2023-02-28T02:44:21;24.05;;;15.40;;
76667;SDS011;65585;51.166;16.922;2023-02-28T02:46:59;27.90;;;17.00;;
76667;SDS011;65585;51.166;16.922;2023-02-28T02:49:35;27.67;;;16.52;;
76667;SDS011;65585;51.166;16.922;2023-02-28T02:52:04;26.30;;;14.57;;
76667;SDS011;65585;51.166;16.922;2023-02-28T02:54:38;31.13;;;16.48;;
76667;SDS011;65585;51.166;16.922;2023-02-28T02:57:22;28.42;;;17.15;;
76667;SDS011;65585;51.166;16.922;2023-02-28T02:59:54;29.73;;;17.35;;
76667;SDS011;65585;51.166;16.922;2023-02-28T03:02:27;33.17;;;18.65;;
76667;SDS011;65585;51.166;16.922;2023-02-28T03:05:01;38.15;;;20.63;;
76667;SDS011;65585;51.166;16.922;2023-02-28T03:07:33;34.42;;;18.65;;
76667;SDS011;65585;51.166;16.922;2023-02-28T03:09:59;39.95;;;19.20;;
76667;SDS011;65585;51.166;16.922;2023-02-28T03:12:40;31.40;;;18.27;;
76667;SDS011;65585;51.166;16.922;2023-02-28T03:15:24;30.05;;;17.33;;
76667;SDS011;65585;51.166;16.922;2023-02-28T03:20:52;38.63;;;19.48;;
76667;SDS011;65585;51.166;16.922;2023-02-28T03:23:30;40.85;;;21.45;;
76667;SDS011;65585;51.166;16.922;2023-02-28T03:26:19;42.67;;;22.73;;
76667;SDS011;65585;51.166;16.922;2023-02-28T03:28:53;36.40;;;20.60;;
76667;SDS011;65585;51.166;16.922;2023-02-28T03:31:27;33.50;;;19.23;;
76667;SDS011;65585;51.166;16.922;2023-02-28T03:34:17;33.38;;;19.33;;
76667;SDS011;65585;51.166;16.922;2023-02-28T03:36:52;30.00;;;17.83;;
76667;SDS011;65585;51.166;16.922;2023-02-28T03:39:27;41.38;;;19.80;;
76667;SDS011;65585;51.166;16.922;2023-02-28T03:42:01;38.22;;;20.85;;
76667;SDS011;65585;51.166;16.922;2023-02-28T03:44:33;35.65;;;19.95;;
76667;SDS011;65585;51.166;16.922;2023-02-28T03:47:16;30.90;;;18.63;;
76667;SDS011;65585;51.166;16.922;2023-02-28T03:52:30;27.48;;;16.52;;
76667;SDS011;65585;51.166;16.922;2023-02-28T03:55:02;33.58;;;15.77;;
76667;SDS011;65585;51.166;16.922;2023-02-28T04:00:04;31.88;;;17.75;;
76667;SDS011;65585;51.166;16.922;2023-02-28T04:02:37;34.13;;;18.10;;
76667;SDS011;65585;51.166;16.922;2023-02-28T04:05:06;34.90;;;19.75;;
76667;SDS011;65585;51.166;16.922;2023-02-28T04:07:33;38.22;;;20.88;;
76667;SDS011;65585;51.166;16.922;2023-02-28T04:10:00;36.85;;;19.27;;
76667;SDS011;65585;51.166;16.922;2023-02-28T04:12:27;39.33;;;21.48;;
76667;SDS011;65585;51.166;16.922;2023-02-28T04:14:54;32.55;;;17.33;;
76667;SDS011;65585;51.166;16.922;2023-02-28T04:17:23;30.40;;;18.35;;
76667;SDS011;65585;51.166;16.922;2023-02-28T04:19:52;31.30;;;16.88;;
76667;SDS011;65585;51.166;16.922;2023-02-28T04:22:23;30.02;;;17.42;;
76667;SDS011;65585;51.166;16.922;2023-02-28T04:24:54;30.05;;;16.98;;
76667;SDS011;65585;51.166;16.922;2023-02-28T04:27:23;33.22;;;18.00;;
76667;SDS011;65585;51.166;16.922;2023-02-28T04:29:50;32.75;;;19.25;;
76667;SDS011;65585;51.166;16.922;2023-02-28T04:32:16;38.17;;;19.83;;
76667;SDS011;65585;51.166;16.922;2023-02-28T04:34:59;33.60;;;17.35;;
76667;SDS011;65585;51.166;16.922;2023-02-28T04:37:37;31.15;;;19.38;;
76667;SDS011;65585;51.166;16.922;2023-02-28T04:40:09;39.90;;;19.77;;
76667;SDS011;65585;51.166;16.922;2023-02-28T04:42:36;31.40;;;18.90;;
76667;SDS011;65585;51.166;16.922;2023-02-28T04:45:05;35.20;;;18.98;;
76667;SDS011;65585;51.166;16.922;2023-02-28T04:47:36;33.35;;;18.75;;
76667;SDS011;65585;51.166;16.922;2023-02-28T04:50:10;30.38;;;17.90;;
76667;SDS011;65585;51.166;16.922;2023-02-28T04:52:50;31.92;;;18.17;;
76667;SDS011;65585;51.166;16.922;2023-02-28T04:55:38;30.70;;;17.52;;
76667;SDS011;65585;51.166;16.922;2023-02-28T04:58:06;33.10;;;18.35;;
76667;SDS011;65585;51.166;16.922;2023-02-28T05:00:33;30.35;;;17.08;;
76667;SDS011;65585;51.166;16.922;2023-02-28T05:03:00;30.73;;;18.35;;
76667;SDS011;65585;51.166;16.922;2023-02-28T05:05:27;30.88;;;17.10;;
76667;SDS011;65585;51.166;16.922;2023-02-28T05:07:56;29.15;;;16.80;;
76667;SDS011;65585;51.166;16.922;2023-02-28T05:10:25;28.55;;;16.77;;
76667;SDS011;65585;51.166;16.922;2023-02-28T05:12:51;36.17;;;17.08;;
76667;SDS011;65585;51.166;16.922;2023-02-28T05:15:23;33.50;;;17.50;;
76667;SDS011;65585;51.166;16.922;2023-02-28T05:17:54;31.83;;;16.10;;
76667;SDS011;65585;51.166;16.922;2023-02-28T05:20:24;30.23;;;19.58;;
76667;SDS011;65585;51.166;16.922;2023-02-28T05:22:53;32.85;;;18.80;;
76667;SDS011;65585;51.166;16.922;2023-02-28T05:28:21;28.65;;;16.83;;
76667;SDS011;65585;51.166;16.922;2023-02-28T05:30:56;29.02;;;17.17;;
76667;SDS011;65585;51.166;16.922;2023-02-28T05:33:28;29.20;;;16.88;;
76667;SDS011;65585;51.166;16.922;2023-02-28T05:35:55;24.80;;;15.77;;
76667;SDS011;65585;51.166;16.922;2023-02-28T05:38:28;27.70;;;16.58;;
76667;SDS011;65585;51.166;16.922;2023-02-28T05:41:15;29.38;;;16.20;;
76667;SDS011;65585;51.166;16.922;2023-02-28T05:44:08;26.58;;;15.43;;
76667;SDS011;65585;51.166;16.922;2023-02-28T05:46:38;33.88;;;17.83;;
76667;SDS011;65585;51.166;16.922;2023-02-28T05:49:17;31.02;;;17.90;;
76667;SDS011;65585;51.166;16.922;2023-02-28T05:52:17;23.23;;;12.70;;
76667;SDS011;65585;51.166;16.922;2023-02-28T05:54:46;23.40;;;13.95;;
76667;SDS011;65585;51.166;16.922;2023-02-28T05:57:23;24.63;;;12.88;;
76667;SDS011;65585;51.166;16.922;2023-02-28T05:59:55;21.63;;;12.40;;
76667;SDS011;65585;51.166;16.922;2023-02-28T06:02:23;21.33;;;13.23;;
76667;SDS011;65585;51.166;16.922;2023-02-28T06:05:16;26.27;;;13.02;;
76667;SDS011;65585;51.166;16.922;2023-02-28T06:07:58;20.05;;;11.48;;
76667;SDS011;65585;51.166;16.922;2023-02-28T06:10:32;29.15;;;13.63;;
76667;SDS011;65585;51.166;16.922;2023-02-28T06:13:09;24.42;;;13.07;;
76667;SDS011;65585;51.166;16.922;2023-02-28T06:18:13;24.13;;;13.88;;
76667;SDS011;65585;51.166;16.922;2023-02-28T06:20:40;22.05;;;11.70;;
76667;SDS011;65585;51.166;16.922;2023-02-28T06:23:17;23.30;;;13.70;;
76667;SDS011;65585;51.166;16.922;2023-02-28T06:25:47;25.02;;;12.98;;
76667;SDS011;65585;51.166;16.922;2023-02-28T06:28:20;25.75;;;14.82;;
76667;SDS011;65585;51.166;16.922;2023-02-28T06:30:55;21.30;;;12.80;;
76667;SDS011;65585;51.166;16.922;2023-02-28T06:33:22;26.10;;;13.85;;
76667;SDS011;65585;51.166;16.922;2023-02-28T06:35:51;24.10;;;12.90;;
76667;SDS011;65585;51.166;16.922;2023-02-28T06:38:17;23.10;;;12.25;;
76667;SDS011;65585;51.166;16.922;2023-02-28T06:40:44;29.33;;;15.10;;
76667;SDS011;65585;51.166;16.922;2023-02-28T06:43:10;27.45;;;14.68;;
76667;SDS011;65585;51.166;16.922;2023-02-28T06:45:42;27.85;;;14.10;;
76667;SDS011;65585;51.166;16.922;2023-02-28T06:48:16;27.60;;;13.75;;
76667;SDS011;65585;51.166;16.922;2023-02-28T06:51:15;28.60;;;14.70;;
76667;SDS011;65585;51.166;16.922;2023-02-28T06:53:44;25.95;;;14.70;;
76667;SDS011;65585;51.166;16.922;2023-02-28T06:56:16;25.83;;;15.48;;
76667;SDS011;65585;51.166;16.922;2023-02-28T06:58:52;25.95;;;13.38;;
76667;SDS011;65585;51.166;16.922;2023-02-28T07:01:19;24.08;;;13.77;;
76667;SDS011;65585;51.166;16.922;2023-02-28T07:03:49;28.08;;;15.20;;
76667;SDS011;65585;51.166;16.922;2023-02-28T07:06:18;27.45;;;13.23;;
76667;SDS011;65585;51.166;16.922;2023-02-28T07:08:53;25.90;;;14.35;;
76667;SDS011;65585;51.166;16.922;2023-02-28T07:11:23;21.63;;;13.43;;
76667;SDS011;65585;51.166;16.922;2023-02-28T07:16:58;23.70;;;13.50;;
76667;SDS011;65585;51.166;16.922;2023-02-28T07:19:53;22.95;;;12.98;;
76667;SDS011;65585;51.166;16.922;2023-02-28T07:22:22;24.00;;;13.85;;
76667;SDS011;65585;51.166;16.922;2023-02-28T07:28:36;29.38;;;12.45;;
76667;SDS011;65585;51.166;16.922;2023-02-28T07:31:20;22.02;;;12.93;;
76667;SDS011;65585;51.166;16.922;2023-02-28T07:33:52;20.67;;;12.10;;
76667;SDS011;65585;51.166;16.922;2023-02-28T07:39:39;21.75;;;12.40;;
76667;SDS011;65585;51.166;16.922;2023-02-28T07:42:17;28.10;;;14.40;;
76667;SDS011;65585;51.166;16.922;2023-02-28T07:45:01;27.50;;;14.25;;
76667;SDS011;65585;51.166;16.922;2023-02-28T07:48:10;23.90;;;13.00;;
76667;SDS011;65585;51.166;16.922;2023-02-28T07:50:55;20.90;;;10.68;;
76667;SDS011;65585;51.166;16.922;2023-02-28T07:53:27;20.52;;;11.82;;
76667;SDS011;65585;51.166;16.922;2023-02-28T07:55:58;21.42;;;11.77;;
76667;SDS011;65585;51.166;16.922;2023-02-28T07:58:31;19.65;;;10.73;;
76667;SDS011;65585;51.166;16.922;2023-02-28T08:07:22;17.10;;;10.88;;
76667;SDS011;65585;51.166;16.922;2023-02-28T08:09:48;22.20;;;11.45;;
76667;SDS011;65585;51.166;16.922;2023-02-28T08:12:15;21.48;;;10.82;;
76667;SDS011;65585;51.166;16.922;2023-02-28T08:14:46;18.05;;;10.68;;
76667;SDS011;65585;51.166;16.922;2023-02-28T08:17:13;18.77;;;11.02;;
76667;SDS011;65585;51.166;16.922;2023-02-28T08:19:39;17.98;;;9.95;;
76667;SDS011;65585;51.166;16.922;2023-02-28T08:22:15;18.80;;;10.63;;
76667;SDS011;65585;51.166;16.922;2023-02-28T08:24:47;18.98;;;10.45;;
76667;SDS011;65585;51.166;16.922;2023-02-28T08:27:24;16.75;;;9.98;;
76667;SDS011;65585;51.166;16.922;2023-02-28T08:29:52;17.27;;;10.40;;
76667;SDS011;65585;51.166;16.922;2023-02-28T08:32:51;17.15;;;10.93;;
76667;SDS011;65585;51.166;16.922;2023-02-28T08:35:40;18.50;;;10.32;;
76667;SDS011;65585;51.166;16.922;2023-02-28T08:38:09;18.52;;;9.90;;
76667;SDS011;65585;51.166;16.922;2023-02-28T08:40:40;13.13;;;8.23;;
76667;SDS011;65585;51.166;16.922;2023-02-28T08:43:10;16.33;;;9.60;;
76667;SDS011;65585;51.166;16.922;2023-02-28T08:45:39;11.02;;;7.65;;
76667;SDS011;65585;51.166;16.922;2023-02-28T08:48:11;10.98;;;7.75;;
76667;SDS011;65585;51.166;16.922;2023-02-28T08:50:39;12.60;;;6.35;;
76667;SDS011;65585;51.166;16.922;2023-02-28T08:53:31;10.18;;;5.32;;
76667;SDS011;65585;51.166;16.922;2023-02-28T08:56:09;10.95;;;6.55;;
76667;SDS011;65585;51.166;16.922;2023-02-28T08:58:58;15.27;;;6.75;;
76667;SDS011;65585;51.166;16.922;2023-02-28T09:01:26;8.80;;;6.20;;
76667;SDS011;65585;51.166;16.922;2023-02-28T09:03:55;10.07;;;6.22;;
76667;SDS011;65585;51.166;16.922;2023-02-28T09:06:27;9.90;;;6.13;;
76667;SDS011;65585;51.166;16.922;2023-02-28T09:09:03;9.40;;;5.97;;
76667;SDS011;65585;51.166;16.922;2023-02-28T09:12:03;9.05;;;4.95;;
76667;SDS011;65585;51.166;16.922;2023-02-28T09:15:11;8.27;;;5.55;;
76667;SDS011;65585;51.166;16.922;2023-02-28T09:43:01;8.60;;;4.75;;
76667;SDS011;65585;51.166;16.922;2023-02-28T09:45:39;7.40;;;4.75;;
76667;SDS011;65585;51.166;16.922;2023-02-28T09:55:52;6.90;;;4.63;;
76667;SDS011;65585;51.166;16.922;2023-02-28T09:58:39;7.60;;;5.20;;
76667;SDS011;65585;51.166;16.922;2023-02-28T10:01:12;11.55;;;6.05;;
76667;SDS011;65585;51.166;16.922;2023-02-28T10:06:32;8.02;;;6.03;;
76667;SDS011;65585;51.166;16.922;2023-02-28T10:19:55;7.63;;;6.03;;
76667;SDS011;65585;51.166;16.922;2023-02-28T10:22:34;11.73;;;6.68;;
76667;SDS011;65585;51.166;16.922;2023-02-28T10:25:18;9.73;;;6.47;;
76667;SDS011;65585;51.166;16.922;2023-02-28T10:27:45;10.73;;;6.28;;
76667;SDS011;65585;51.166;16.922;2023-02-28T10:30:11;13.75;;;7.60;;
76667;SDS011;65585;51.166;16.922;2023-02-28T10:32:39;13.15;;;8.07;;
76667;SDS011;65585;51.166;16.922;2023-02-28T10:35:24;8.85;;;7.13;;
76667;SDS011;65585;51.166;16.922;2023-02-28T10:38:49;11.73;;;8.50;;
76667;SDS011;65585;51.166;16.922;2023-02-28T10:41:34;11.93;;;8.13;;
76667;SDS011;65585;51.166;16.922;2023-02-28T10:44:40;14.82;;;7.95;;
76667;SDS011;65585;51.166;16.922;2023-02-28T10:51:25;10.57;;;7.47;;
76667;SDS011;65585;51.166;16.922;2023-02-28T10:54:14;10.18;;;7.15;;
76667;SDS011;65585;51.166;16.922;2023-02-28T10:57:30;10.45;;;6.50;;
76667;SDS011;65585;51.166;16.922;2023-02-28T11:00:32;11.43;;;7.22;;
76667;SDS011;65585;51.166;16.922;2023-02-28T11:03:34;10.32;;;7.30;;
76667;SDS011;65585;51.166;16.922;2023-02-28T11:06:05;11.48;;;6.95;;
76667;SDS011;65585;51.166;16.922;2023-02-28T11:08:37;10.88;;;6.90;;
76667;SDS011;65585;51.166;16.922;2023-02-28T11:11:15;10.32;;;7.10;;
76667;SDS011;65585;51.166;16.922;2023-02-28T11:13:45;10.98;;;6.53;;
76667;SDS011;65585;51.166;16.922;2023-02-28T11:19:45;10.00;;;6.40;;
76667;SDS011;65585;51.166;16.922;2023-02-28T11:22:33;9.63;;;6.30;;
76667;SDS011;65585;51.166;16.922;2023-02-28T11:25:16;11.60;;;6.97;;
76667;SDS011;65585;51.166;16.922;2023-02-28T11:27:56;10.10;;;6.10;;
76667;SDS011;65585;51.166;16.922;2023-02-28T11:30:41;7.10;;;5.32;;
76667;SDS011;65585;51.166;16.922;2023-02-28T11:33:31;8.93;;;5.68;;
76667;SDS011;65585;51.166;16.922;2023-02-28T11:36:20;10.82;;;6.25;;
76667;SDS011;65585;51.166;16.922;2023-02-28T11:39:04;11.43;;;6.72;;
76667;SDS011;65585;51.166;16.922;2023-02-28T11:41:58;7.45;;;5.13;;
76667;SDS011;65585;51.166;16.922;2023-02-28T11:56:48;10.75;;;6.05;;
76667;SDS011;65585;51.166;16.922;2023-02-28T12:17:50;13.43;;;8.45;;
76667;SDS011;65585;51.166;16.922;2023-02-28T12:20:33;13.90;;;8.48;;
76667;SDS011;65585;51.166;16.922;2023-02-28T12:28:10;11.25;;;7.90;;
76667;SDS011;65585;51.166;16.922;2023-02-28T12:30:41;13.30;;;8.23;;
76667;SDS011;65585;51.166;16.922;2023-02-28T12:44:08;13.52;;;8.15;;
76667;SDS011;65585;51.166;16.922;2023-02-28T12:46:44;10.73;;;7.32;;
76667;SDS011;65585;51.166;16.922;2023-02-28T12:52:02;10.93;;;7.05;;
76667;SDS011;65585;51.166;16.922;2023-02-28T12:54:35;13.68;;;7.60;;
76667;SDS011;65585;51.166;16.922;2023-02-28T13:13:13;14.82;;;8.38;;
76667;SDS011;65585;51.166;16.922;2023-02-28T13:15:56;12.73;;;7.80;;
76667;SDS011;65585;51.166;16.922;2023-02-28T13:18:34;11.30;;;7.85;;
76667;SDS011;65585;51.166;16.922;2023-02-28T13:29:00;10.88;;;7.03;;
76667;SDS011;65585;51.166;16.922;2023-02-28T13:31:30;11.73;;;7.65;;
76667;SDS011;65585;51.166;16.922;2023-02-28T13:34:12;10.18;;;7.30;;
76667;SDS011;65585;51.166;16.922;2023-02-28T13:36:40;13.45;;;8.23;;
76667;SDS011;65585;51.166;16.922;2023-02-28T13:55:31;14.30;;;6.85;;
76667;SDS011;65585;51.166;16.922;2023-02-28T14:03:41;10.88;;;6.93;;
76667;SDS011;65585;51.166;16.922;2023-02-28T14:06:29;12.43;;;7.45;;
76667;SDS011;65585;51.166;16.922;2023-02-28T14:19:37;10.65;;;7.72;;
76667;SDS011;65585;51.166;16.922;2023-02-28T14:24:42;11.23;;;8.10;;
76667;SDS011;65585;51.166;16.922;2023-02-28T14:43:25;12.75;;;8.55;;
76667;SDS011;65585;51.166;16.922;2023-02-28T14:47:02;12.20;;;8.25;;
76667;SDS011;65585;51.166;16.922;2023-02-28T14:50:27;11.38;;;7.82;;
76667;SDS011;65585;51.166;16.922;2023-02-28T14:53:18;13.85;;;8.43;;
76667;SDS011;65585;51.166;16.922;2023-02-28T14:55:46;10.02;;;7.45;;
76667;SDS011;65585;51.166;16.922;2023-02-28T15:00:55;9.65;;;7.13;;
76667;SDS011;65585;51.166;16.922;2023-02-28T15:03:33;11.73;;;7.80;;
76667;SDS011;65585;51.166;16.922;2023-02-28T15:06:19;11.35;;;8.70;;
76667;SDS011;65585;51.166;16.922;2023-02-28T15:21:00;12.60;;;8.32;;
76667;SDS011;65585;51.166;16.922;2023-02-28T15:28:15;12.10;;;7.13;;
76667;SDS011;65585;51.166;16.922;2023-02-28T15:30:53;11.50;;;7.05;;
76667;SDS011;65585;51.166;16.922;2023-02-28T15:33:27;9.77;;;6.25;;
76667;SDS011;65585;51.166;16.922;2023-02-28T15:44:56;11.40;;;6.28;;
76667;SDS011;65585;51.166;16.922;2023-02-28T15:52:00;9.95;;;5.82;;
76667;SDS011;65585;51.166;16.922;2023-02-28T15:55:44;10.40;;;6.22;;
76667;SDS011;65585;51.166;16.922;2023-02-28T16:08:44;11.88;;;7.03;;
76667;SDS011;65585;51.166;16.922;2023-02-28T16:11:10;9.98;;;7.20;;
76667;SDS011;65585;51.166;16.922;2023-02-28T16:23:51;14.48;;;8.68;;
76667;SDS011;65585;51.166;16.922;2023-02-28T16:26:19;15.80;;;8.75;;
76667;SDS011;65585;51.166;16.922;2023-02-28T16:28:47;19.65;;;9.18;;
76667;SDS011;65585;51.166;16.922;2023-02-28T16:31:14;23.73;;;12.13;;
76667;SDS011;65585;51.166;16.922;2023-02-28T16:33:42;15.48;;;9.35;;
76667;SDS011;65585;51.166;16.922;2023-02-28T16:36:23;17.52;;;10.38;;
76667;SDS011;65585;51.166;16.922;2023-02-28T16:38:53;12.77;;;7.53;;
76667;SDS011;65585;51.166;16.922;2023-02-28T16:41:21;15.07;;;8.70;;
76667;SDS011;65585;51.166;16.922;2023-02-28T16:43:50;20.63;;;10.05;;
76667;SDS011;65585;51.166;16.922;2023-02-28T16:46:18;14.07;;;8.07;;
76667;SDS011;65585;51.166;16.922;2023-02-28T16:48:45;13.15;;;7.88;;
76667;SDS011;65585;51.166;16.922;2023-02-28T16:51:14;11.77;;;7.60;;
76667;SDS011;65585;51.166;16.922;2023-02-28T16:53:41;11.32;;;7.75;;
76667;SDS011;65585;51.166;16.922;2023-02-28T16:56:21;20.42;;;9.13;;
76667;SDS011;65585;51.166;16.922;2023-02-28T17:01:16;13.40;;;6.80;;
76667;SDS011;65585;51.166;16.922;2023-02-28T17:03:47;8.57;;;6.22;;
76667;SDS011;65585;51.166;16.922;2023-02-28T17:06:21;13.20;;;8.70;;
76667;SDS011;65585;51.166;16.922;2023-02-28T17:08:49;12.40;;;7.53;;
76667;SDS011;65585;51.166;16.922;2023-02-28T17:11:16;11.20;;;7.63;;
76667;SDS011;65585;51.166;16.922;2023-02-28T17:13:43;13.45;;;7.78;;
76667;SDS011;65585;51.166;16.922;2023-02-28T17:16:21;15.32;;;9.25;;
76667;SDS011;65585;51.166;16.922;2023-02-28T17:18:52;19.60;;;10.25;;
76667;SDS011;65585;51.166;16.922;2023-02-28T17:21:20;17.13;;;9.98;;
76667;SDS011;65585;51.166;16.922;2023-02-28T17:23:46;17.60;;;10.60;;
76667;SDS011;65585;51.166;16.922;2023-02-28T17:26:15;18.77;;;10.52;;
76667;SDS011;65585;51.166;16.922;2023-02-28T17:28:43;17.95;;;9.73;;
76667;SDS011;65585;51.166;16.922;2023-02-28T17:31:09;21.20;;;9.90;;
76667;SDS011;65585;51.166;16.922;2023-02-28T17:33:35;21.52;;;9.30;;
76667;SDS011;65585;51.166;16.922;2023-02-28T17:36:21;17.73;;;9.85;;
76667;SDS011;65585;51.166;16.922;2023-02-28T17:42:22;17.92;;;9.05;;
76667;SDS011;65585;51.166;16.922;2023-02-28T17:45:34;16.65;;;9.98;;
76667;SDS011;65585;51.166;16.922;2023-02-28T17:48:08;22.88;;;11.05;;
76667;SDS011;65585;51.166;16.922;2023-02-28T17:58:48;18.60;;;11.95;;
76667;SDS011;65585;51.166;16.922;2023-02-28T18:01:25;20.90;;;11.98;;
76667;SDS011;65585;51.166;16.922;2023-02-28T18:03:52;24.90;;;12.65;;
76667;SDS011;65585;51.166;16.922;2023-02-28T18:06:23;19.58;;;13.05;;
76667;SDS011;65585;51.166;16.922;2023-02-28T18:08:52;26.70;;;13.70;;
76667;SDS011;65585;51.166;16.922;2023-02-28T18:11:20;23.90;;;14.32;;
76667;SDS011;65585;51.166;16.922;2023-02-28T18:13:48;30.75;;;12.50;;
76667;SDS011;65585;51.166;16.922;2023-02-28T18:18:42;19.58;;;11.77;;
76667;SDS011;65585;51.166;16.922;2023-02-28T18:21:10;29.90;;;15.25;;
76667;SDS011;65585;51.166;16.922;2023-02-28T18:23:37;31.23;;;14.00;;
76667;SDS011;65585;51.166;16.922;2023-02-28T18:26:13;24.95;;;13.63;;
76667;SDS011;65585;51.166;16.922;2023-02-28T18:28:40;26.33;;;12.93;;
76667;SDS011;65585;51.166;16.922;2023-02-28T18:31:10;21.70;;;13.85;;
76667;SDS011;65585;51.166;16.922;2023-02-28T18:33:40;26.85;;;15.18;;
76667;SDS011;65585;51.166;16.922;2023-02-28T18:36:07;35.88;;;16.38;;
76667;SDS011;65585;51.166;16.922;2023-02-28T18:38:33;30.08;;;16.35;;
76667;SDS011;65585;51.166;16.922;2023-02-28T18:41:00;38.92;;;17.17;;
76667;SDS011;65585;51.166;16.922;2023-02-28T18:43:28;25.05;;;15.85;;
76667;SDS011;65585;51.166;16.922;2023-02-28T18:45:55;23.25;;;14.82;;
76667;SDS011;65585;51.166;16.922;2023-02-28T18:48:21;26.83;;;14.55;;
76667;SDS011;65585;51.166;16.922;2023-02-28T18:50:51;30.33;;;15.48;;
76667;SDS011;65585;51.166;16.922;2023-02-28T18:53:17;25.13;;;15.93;;
76667;SDS011;65585;51.166;16.922;2023-02-28T18:55:45;29.33;;;17.73;;
76667;SDS011;65585;51.166;16.922;2023-02-28T18:58:11;33.00;;;16.75;;
76667;SDS011;65585;51.166;16.922;2023-02-28T19:00:40;27.58;;;15.80;;
76667;SDS011;65585;51.166;16.922;2023-02-28T19:03:06;31.45;;;15.25;;
76667;SDS011;65585;51.166;16.922;2023-02-28T19:05:33;29.58;;;15.55;;
76667;SDS011;65585;51.166;16.922;2023-02-28T19:08:00;27.70;;;15.55;;
76667;SDS011;65585;51.166;16.922;2023-02-28T19:10:26;28.02;;;15.82;;
76667;SDS011;65585;51.166;16.922;2023-02-28T19:23:14;30.63;;;16.73;;
76667;SDS011;65585;51.166;16.922;2023-02-28T19:25:41;28.55;;;16.50;;
76667;SDS011;65585;51.166;16.922;2023-02-28T19:28:07;33.63;;;16.48;;
76667;SDS011;65585;51.166;16.922;2023-02-28T19:30:33;28.08;;;16.30;;
76667;SDS011;65585;51.166;16.922;2023-02-28T19:32:59;33.83;;;18.23;;
76667;SDS011;65585;51.166;16.922;2023-02-28T19:35:25;35.25;;;17.85;;
76667;SDS011;65585;51.166;16.922;2023-02-28T19:37:51;34.10;;;17.42;;
76667;SDS011;65585;51.166;16.922;2023-02-28T19:40:18;30.73;;;17.00;;
76667;SDS011;65585;51.166;16.922;2023-02-28T19:42:44;32.03;;;17.15;;
76667;SDS011;65585;51.166;16.922;2023-02-28T19:45:11;31.63;;;16.98;;
76667;SDS011;65585;51.166;16.922;2023-02-28T19:47:39;29.30;;;16.55;;
76667;SDS011;65585;51.166;16.922;2023-02-28T19:50:06;27.27;;;14.60;;
76667;SDS011;65585;51.166;16.922;2023-02-28T19:52:35;32.45;;;17.02;;
76667;SDS011;65585;51.166;16.922;2023-02-28T19:55:01;32.25;;;16.27;;
76667;SDS011;65585;51.166;16.922;2023-02-28T19:57:27;34.55;;;16.77;;
76667;SDS011;65585;51.166;16.922;2023-02-28T19:59:54;32.85;;;15.00;;
76667;SDS011;65585;51.166;16.922;2023-02-28T20:02:20;31.52;;;16.40;;
76667;SDS011;65585;51.166;16.922;2023-02-28T20:04:48;36.58;;;17.30;;
76667;SDS011;65585;51.166;16.922;2023-02-28T20:07:15;32.22;;;17.48;;
76667;SDS011;65585;51.166;16.922;2023-02-28T20:09:42;33.13;;;16.35;;
76667;SDS011;65585;51.166;16.922;2023-02-28T20:12:09;29.42;;;16.42;;